createdAt,value
2023-04-07T00:01:55.853Z,70.00
2023-04-07T00:04:23.214Z,69.90
2023-04-07T00:06:50.439Z,70.60
2023-04-07T00:09:17.590Z,71.30
2023-04-07T00:11:44.728Z,71.50
2023-04-07T00:14:11.815Z,71.10
2023-04-07T00:16:38.915Z,71.60
2023-04-07T00:19:05.979Z,71.90
2023-04-07T00:21:33.082Z,72.20
2023-04-07T00:24:00.307Z,71.90
2023-04-07T00:26:31.460Z,71.60
2023-04-07T00:28:59.157Z,72.10
2023-04-07T00:31:26.382Z,72.00
2023-04-07T00:33:53.746Z,72.80
2023-04-07T00:36:21.190Z,72.60
2023-04-07T00:38:48.246Z,72.90
2023-04-07T00:41:15.816Z,73.10
2023-04-07T00:43:43.266Z,72.70
2023-04-07T00:46:10.508Z,72.50
2023-04-07T00:48:37.988Z,71.30
2023-04-07T00:51:05.214Z,71.00
2023-04-07T00:53:32.296Z,71.20
2023-04-07T00:55:59.566Z,71.50
2023-04-07T00:58:26.674Z,71.10
2023-04-07T01:01:02.975Z,71.20
2023-04-07T01:03:45.301Z,71.70
2023-04-07T01:06:15.020Z,71.60
2023-04-07T01:08:51.647Z,71.30
2023-04-07T01:11:28.289Z,71.70
2023-04-07T01:13:57.604Z,72.60
2023-04-07T01:16:45.901Z,72.50
2023-04-07T01:19:13.556Z,73.00
2023-04-07T01:21:44.060Z,73.10
2023-04-07T01:24:17.207Z,73.20
2023-04-07T01:26:44.863Z,73.60
2023-04-07T01:29:24.240Z,74.00
2023-04-07T01:31:51.629Z,74.40
2023-04-07T01:34:19.552Z,73.90
2023-04-07T01:36:47.035Z,74.10
2023-04-07T01:39:14.389Z,73.70
2023-04-07T01:41:41.824Z,73.60
2023-04-07T01:44:09.623Z,74.00
2023-04-07T01:46:36.810Z,74.10
2023-04-07T01:49:04.836Z,73.90
2023-04-07T01:51:32.635Z,73.70
2023-04-07T01:54:01.785Z,73.90
2023-04-07T01:56:29.188Z,75.00
2023-04-07T01:58:57.969Z,74.40
2023-04-07T02:01:26.049Z,73.90
2023-04-07T02:04:01.533Z,74.00
2023-04-07T02:06:36.540Z,73.50
2023-04-07T02:09:06.944Z,72.80
2023-04-07T02:11:36.069Z,72.60
2023-04-07T02:14:07.008Z,72.70
2023-04-07T02:16:45.787Z,71.60
2023-04-07T02:19:14.598Z,71.00
2023-04-07T02:21:42.325Z,70.70
2023-04-07T02:24:11.275Z,70.60
2023-04-07T02:26:38.359Z,70.50
2023-04-07T02:29:05.814Z,70.90
2023-04-07T02:31:33.032Z,70.00
2023-04-07T02:34:01.356Z,69.50
2023-04-07T02:36:28.477Z,69.10
2023-04-07T02:38:56.053Z,68.90
2023-04-07T02:41:23.129Z,68.80
2023-04-07T02:43:50.263Z,69.40
2023-04-07T02:46:17.378Z,69.60
2023-04-07T02:48:44.490Z,70.30
2023-04-07T02:51:11.612Z,69.70
2023-04-07T02:53:38.794Z,70.30
2023-04-07T02:56:06.531Z,71.00
2023-04-07T02:58:33.668Z,71.70
2023-04-07T03:01:00.806Z,71.70
2023-04-07T03:03:31.564Z,72.20
2023-04-07T03:06:06.527Z,72.00
2023-04-07T03:08:36.529Z,71.90
2023-04-07T03:11:03.633Z,71.80
2023-04-07T03:13:31.324Z,72.10
2023-04-07T03:15:58.457Z,73.30
2023-04-07T03:18:29.874Z,73.10
2023-04-07T03:21:01.296Z,73.60
2023-04-07T03:23:29.436Z,74.00
2023-04-07T03:25:58.567Z,74.10
2023-04-07T03:28:29.992Z,74.10
2023-04-07T03:30:57.282Z,73.70
2023-04-07T03:33:24.709Z,74.00
2023-04-07T03:35:54.183Z,74.50
2023-04-07T03:38:21.832Z,74.70
2023-04-07T03:40:53.755Z,73.80
2023-04-07T03:43:22.089Z,74.70
2023-04-07T03:45:49.153Z,75.30
2023-04-07T03:48:17.662Z,75.80
2023-04-07T03:50:57.818Z,76.50
2023-04-07T03:53:24.969Z,76.90
2023-04-07T03:55:53.151Z,76.70
2023-04-07T03:58:33.435Z,77.10
2023-04-07T04:01:00.685Z,78.10
2023-04-07T04:03:28.210Z,77.90
2023-04-07T04:06:21.439Z,77.50
2023-04-07T04:08:49.286Z,77.50
2023-04-07T04:11:16.455Z,77.70
2023-04-07T04:13:52.496Z,77.50
2023-04-07T04:16:19.992Z,78.40
2023-04-07T04:18:49.001Z,78.00
2023-04-07T04:21:17.122Z,79.20
2023-04-07T04:23:45.967Z,79.20
2023-04-07T04:26:13.355Z,79.50
2023-04-07T04:28:43.264Z,79.80
2023-04-07T04:31:10.945Z,80.00
2023-04-07T04:33:42.846Z,80.80
2023-04-07T04:36:10.067Z,81.00
2023-04-07T04:38:37.496Z,81.00
2023-04-07T04:41:15.407Z,80.40
2023-04-07T04:43:43.529Z,81.00
2023-04-07T04:46:13.043Z,81.30
2023-04-07T04:48:43.272Z,81.80
2023-04-07T04:51:10.351Z,81.70
2023-04-07T04:53:39.375Z,80.40
2023-04-07T04:56:07.838Z,81.10
2023-04-07T04:58:47.114Z,80.40
2023-04-07T05:01:46.836Z,80.70
2023-04-07T05:04:18.004Z,81.60
2023-04-07T05:06:51.677Z,82.60
2023-04-07T05:09:21.204Z,83.50
2023-04-07T05:11:49.549Z,84.10
2023-04-07T05:14:16.638Z,84.30
2023-04-07T05:16:50.625Z,84.20
2023-04-07T05:19:21.691Z,84.30
2023-04-07T05:21:50.441Z,84.10
2023-04-07T05:24:20.418Z,82.80
2023-04-07T05:26:52.959Z,83.30
2023-04-07T05:29:20.371Z,83.60
2023-04-07T05:31:48.479Z,83.20
2023-04-07T05:34:17.635Z,83.20
2023-04-07T05:36:51.091Z,82.90
2023-04-07T05:39:18.262Z,82.50
2023-04-07T05:41:46.626Z,82.70
2023-04-07T05:44:15.310Z,82.00
2023-04-07T05:46:45.340Z,82.80
2023-04-07T05:49:19.950Z,81.90
2023-04-07T05:51:51.908Z,82.40
2023-04-07T05:54:20.085Z,82.00
2023-04-07T05:56:48.477Z,82.10
2023-04-07T05:59:15.588Z,81.40
2023-04-07T06:01:43.064Z,81.10
2023-04-07T06:04:11.138Z,80.50
2023-04-07T06:06:38.571Z,79.90
2023-04-07T06:09:07.013Z,80.20
2023-04-07T06:11:35.346Z,80.50
2023-04-07T06:14:02.426Z,80.80
2023-04-07T06:16:29.637Z,80.90
2023-04-07T06:18:56.912Z,80.70
2023-04-07T06:21:27.421Z,79.20
2023-04-07T06:23:54.514Z,78.70
2023-04-07T06:26:21.930Z,78.50
2023-04-07T06:28:48.976Z,79.10
2023-04-07T06:31:16.672Z,78.70
2023-04-07T06:33:44.122Z,80.30
2023-04-07T06:36:11.481Z,79.50
2023-04-07T06:38:38.672Z,75.90
2023-04-07T06:41:06.362Z,74.60
2023-04-07T06:43:33.458Z,74.90
2023-04-07T06:46:04.765Z,73.50
2023-04-07T06:48:31.870Z,71.40
2023-04-07T06:50:58.954Z,69.60
2023-04-07T06:53:26.160Z,68.10
2023-04-07T06:56:02.627Z,66.20
2023-04-07T06:58:29.709Z,66.30
2023-04-07T07:00:56.775Z,65.90
2023-04-07T07:03:24.071Z,63.90
2023-04-07T07:05:52.791Z,61.60
2023-04-07T07:08:19.951Z,59.10
2023-04-07T07:10:47.004Z,58.90
2023-04-07T07:13:14.091Z,59.60
2023-04-07T07:15:41.305Z,59.50
2023-04-07T07:18:08.493Z,59.40
2023-04-07T07:20:35.804Z,60.30
2023-04-07T07:23:02.876Z,59.20
2023-04-07T07:25:30.202Z,59.40
2023-04-07T07:27:57.311Z,59.50
2023-04-07T07:30:24.681Z,58.70
2023-04-07T07:32:53.697Z,59.10
2023-04-07T07:35:21.345Z,58.20
2023-04-07T07:37:48.884Z,58.60
2023-04-07T07:40:16.036Z,57.70
2023-04-07T07:42:43.126Z,56.70
2023-04-07T07:45:10.360Z,54.80
2023-04-07T07:47:37.818Z,55.40
2023-04-07T07:50:05.645Z,53.40
2023-04-07T07:52:32.752Z,53.40
2023-04-07T07:54:59.794Z,53.40
2023-04-07T07:57:26.929Z,51.70
2023-04-07T07:59:54.044Z,52.00
2023-04-07T08:02:21.379Z,51.30
2023-04-07T08:04:48.575Z,52.60
2023-04-07T08:07:16.354Z,50.40
2023-04-07T08:09:43.397Z,49.50
2023-04-07T08:12:10.642Z,50.10
2023-04-07T08:14:37.888Z,51.00
2023-04-07T08:17:05.476Z,50.10
2023-04-07T08:19:32.606Z,51.00
2023-04-07T08:21:59.659Z,52.00
2023-04-07T08:24:28.160Z,52.10
2023-04-07T08:26:56.030Z,49.40
2023-04-07T08:29:23.112Z,49.00
2023-04-07T08:31:50.356Z,49.40
2023-04-07T08:34:18.969Z,52.50
2023-04-07T08:36:46.811Z,53.90
2023-04-07T08:39:13.872Z,54.90
2023-04-07T08:41:41.557Z,55.80
2023-04-07T08:44:09.543Z,56.20
2023-04-07T08:46:38.658Z,55.70
2023-04-07T08:49:10.188Z,53.80
2023-04-07T08:51:37.953Z,54.40
2023-04-07T08:54:06.879Z,53.90
2023-04-07T08:56:34.532Z,55.20
2023-04-07T08:59:02.590Z,54.00
2023-04-07T09:01:29.991Z,54.80
2023-04-07T09:03:58.290Z,56.00
2023-04-07T09:06:27.467Z,57.00
2023-04-07T09:08:55.383Z,57.50
2023-04-07T09:11:23.653Z,55.40
2023-04-07T09:13:51.396Z,53.80
2023-04-07T09:16:18.769Z,52.80
2023-04-07T09:18:46.012Z,51.80
2023-04-07T09:21:15.537Z,50.20
2023-04-07T09:23:43.106Z,50.50
2023-04-07T09:26:22.064Z,51.10
2023-04-07T09:28:50.679Z,53.10
2023-04-07T09:31:17.867Z,55.30
2023-04-07T09:33:45.013Z,56.50
2023-04-07T09:36:12.416Z,55.50
2023-04-07T09:38:40.584Z,54.80
2023-04-07T09:41:10.995Z,53.30
2023-04-07T09:43:40.516Z,53.40
2023-04-07T09:46:11.818Z,54.40
2023-04-07T09:48:39.957Z,54.30
2023-04-07T09:51:08.279Z,54.30
2023-04-07T09:53:44.986Z,54.90
2023-04-07T09:56:12.234Z,54.60
2023-04-07T09:58:40.882Z,54.50
2023-04-07T10:01:09.498Z,55.50
2023-04-07T10:03:37.498Z,55.10
2023-04-07T10:06:06.467Z,53.70
2023-04-07T10:08:35.614Z,52.30
2023-04-07T10:11:03.585Z,52.20
2023-04-07T10:13:31.761Z,51.40
2023-04-07T10:15:59.702Z,50.90
2023-04-07T10:18:29.865Z,51.40
2023-04-07T10:20:57.687Z,52.70
2023-04-07T10:23:28.029Z,53.10
2023-04-07T10:25:58.280Z,53.40
2023-04-07T10:28:26.423Z,52.90
2023-04-07T10:30:53.888Z,53.70
2023-04-07T10:33:39.537Z,54.20
2023-04-07T10:36:07.377Z,54.60
2023-04-07T10:38:34.593Z,55.50
2023-04-07T10:41:22.001Z,55.90
2023-04-07T10:43:49.505Z,56.10
2023-04-07T10:46:17.023Z,55.70
2023-04-07T10:49:04.607Z,55.70
2023-04-07T10:51:31.739Z,54.70
2023-04-07T10:54:18.506Z,53.70
2023-04-07T10:57:03.857Z,54.00
2023-04-07T10:59:31.085Z,54.90
2023-04-07T11:02:13.795Z,54.10
2023-04-07T11:04:42.532Z,55.40
2023-04-07T11:07:10.271Z,55.70
2023-04-07T11:09:37.593Z,55.40
2023-04-07T11:12:07.657Z,55.90
2023-04-07T11:14:37.497Z,55.60
2023-04-07T11:17:04.673Z,55.40
2023-04-07T11:19:50.458Z,55.10
2023-04-07T11:22:29.354Z,55.20
2023-04-07T11:24:57.305Z,55.40
2023-04-07T11:27:24.694Z,54.50
2023-04-07T11:29:51.951Z,53.50
2023-04-07T11:32:24.877Z,53.20
2023-04-07T11:34:52.807Z,52.80
2023-04-07T11:37:23.637Z,52.40
2023-04-07T11:39:54.183Z,52.70
2023-04-07T11:42:38.225Z,53.80
2023-04-07T11:45:08.183Z,53.60
2023-04-07T11:47:36.081Z,53.70
2023-04-07T11:50:03.425Z,53.10
2023-04-07T11:52:40.798Z,53.90
2023-04-07T11:55:16.471Z,53.60
2023-04-07T11:57:43.598Z,53.90
2023-04-07T12:00:11.658Z,53.70
2023-04-07T12:02:39.017Z,54.50
2023-04-07T12:05:06.756Z,54.60
2023-04-07T12:07:33.967Z,54.60
2023-04-07T12:10:17.866Z,54.50
2023-04-07T12:12:45.388Z,54.40
2023-04-07T12:15:13.614Z,54.30
2023-04-07T12:17:44.922Z,53.70
2023-04-07T12:20:12.200Z,53.80
2023-04-07T12:22:39.299Z,54.30
2023-04-07T12:25:06.511Z,54.40
2023-04-07T12:27:42.845Z,53.80
2023-04-07T12:30:11.045Z,53.30
2023-04-07T12:32:38.529Z,55.20
2023-04-07T12:35:06.195Z,54.40
2023-04-07T12:37:33.318Z,55.10
2023-04-07T12:40:00.670Z,54.90
2023-04-07T12:42:28.091Z,55.50
2023-04-07T12:44:55.445Z,55.90
2023-04-07T12:47:22.608Z,54.60
2023-04-07T12:49:50.279Z,54.40
2023-04-07T12:52:17.564Z,54.40
2023-04-07T12:54:45.332Z,54.10
2023-04-07T12:57:12.724Z,54.80
2023-04-07T12:59:39.865Z,54.60
2023-04-07T13:02:08.051Z,55.70
2023-04-07T13:04:35.675Z,55.40
2023-04-07T13:07:03.292Z,55.40
2023-04-07T13:09:30.415Z,54.90
2023-04-07T13:11:57.955Z,55.70
2023-04-07T13:14:25.283Z,55.80
2023-04-07T13:16:52.748Z,55.60
2023-04-07T13:19:19.941Z,55.70
2023-04-07T13:21:48.223Z,55.00
2023-04-07T13:24:15.883Z,55.50
2023-04-07T13:26:43.143Z,55.60
2023-04-07T13:29:10.442Z,55.10
2023-04-07T13:31:37.643Z,55.40
2023-04-07T13:34:04.819Z,55.40
2023-04-07T13:36:32.019Z,55.40
2023-04-07T13:38:59.767Z,55.30
2023-04-07T13:41:26.899Z,55.00
2023-04-07T13:43:53.998Z,55.30
2023-04-07T13:46:28.504Z,55.50
2023-04-07T13:48:56.707Z,55.30
2023-04-07T13:51:23.846Z,55.20
2023-04-07T13:53:51.317Z,55.40
2023-04-07T13:56:18.528Z,55.50
2023-04-07T13:58:46.034Z,55.20
2023-04-07T14:01:13.346Z,55.70
2023-04-07T14:03:40.565Z,55.60
2023-04-07T14:06:07.706Z,56.00
2023-04-07T14:08:34.787Z,56.00
2023-04-07T14:11:02.365Z,56.00
2023-04-07T14:13:29.400Z,56.10
2023-04-07T14:15:56.546Z,56.10
2023-04-07T14:18:23.825Z,57.10
2023-04-07T14:20:50.970Z,56.30
2023-04-07T14:23:30.028Z,55.60
2023-04-07T14:26:03.582Z,55.60
2023-04-07T14:28:30.823Z,56.30
2023-04-07T14:30:57.943Z,58.00
2023-04-07T14:33:26.079Z,58.00
2023-04-07T14:35:53.290Z,58.50
2023-04-07T14:38:24.281Z,57.20
2023-04-07T14:40:53.948Z,56.40
2023-04-07T14:43:21.117Z,55.80
2023-04-07T14:45:48.173Z,56.00
2023-04-07T14:48:15.263Z,56.90
2023-04-07T14:50:42.352Z,57.30
2023-04-07T14:53:09.470Z,57.30
2023-04-07T14:55:37.038Z,57.30
2023-04-07T14:58:04.147Z,57.60
2023-04-07T15:00:31.275Z,57.20
2023-04-07T15:02:58.563Z,57.50
2023-04-07T15:05:29.085Z,57.20
2023-04-07T15:07:57.040Z,57.20
2023-04-07T15:10:24.181Z,56.80
2023-04-07T15:12:51.251Z,56.70
2023-04-07T15:15:18.568Z,56.40
2023-04-07T15:17:45.845Z,56.40
2023-04-07T15:20:13.630Z,56.80
2023-04-07T15:22:40.897Z,57.10
2023-04-07T15:25:08.574Z,57.00
2023-04-07T15:27:36.364Z,57.50
2023-04-07T15:30:03.773Z,57.30
2023-04-07T15:32:31.910Z,57.40
2023-04-07T15:34:59.054Z,56.50
2023-04-07T15:37:26.283Z,56.90
2023-04-07T15:39:53.411Z,55.90
2023-04-07T15:42:20.632Z,56.50
2023-04-07T15:44:47.835Z,57.10
2023-04-07T15:47:14.926Z,55.20
2023-04-07T15:49:42.290Z,54.40
2023-04-07T15:52:09.561Z,54.80
2023-04-07T15:54:36.674Z,55.10
2023-04-07T15:57:03.805Z,54.90
2023-04-07T15:59:31.180Z,54.20
2023-04-07T16:01:58.644Z,53.40
2023-04-07T16:04:25.907Z,53.60
2023-04-07T16:06:53.096Z,53.50
2023-04-07T16:09:20.262Z,54.10
2023-04-07T16:11:47.343Z,53.50
2023-04-07T16:14:14.390Z,54.70
2023-04-07T16:16:41.641Z,54.70
2023-04-07T16:19:08.890Z,54.70
2023-04-07T16:21:35.969Z,55.30
2023-04-07T16:24:03.032Z,55.50
2023-04-07T16:26:30.242Z,54.30
2023-04-07T16:28:57.325Z,54.50
2023-04-07T16:31:24.394Z,54.80
2023-04-07T16:33:51.621Z,55.00
2023-04-07T16:36:18.869Z,55.50
2023-04-07T16:38:46.027Z,54.80
2023-04-07T16:41:14.584Z,54.70
2023-04-07T16:43:41.694Z,53.90
2023-04-07T16:46:08.791Z,54.80
2023-04-07T16:48:36.030Z,55.10
2023-04-07T16:51:03.119Z,56.30
2023-04-07T16:53:30.182Z,56.70
2023-04-07T16:55:57.329Z,57.50
2023-04-07T16:58:24.607Z,57.70
2023-04-07T17:00:51.695Z,58.10
2023-04-07T17:03:18.936Z,58.10
2023-04-07T17:05:47.153Z,57.90
2023-04-07T17:08:14.270Z,58.10
2023-04-07T17:10:41.388Z,57.80
2023-04-07T17:13:08.449Z,58.10
2023-04-07T17:15:37.126Z,57.90
2023-04-07T17:18:04.371Z,57.80
2023-04-07T17:20:31.509Z,57.50
2023-04-07T17:22:58.634Z,57.30
2023-04-07T17:25:25.873Z,57.20
2023-04-07T17:27:55.018Z,56.90
2023-04-07T17:30:22.510Z,56.80
2023-04-07T17:32:50.723Z,56.90
2023-04-07T17:35:18.241Z,57.00
2023-04-07T17:37:46.017Z,57.10
2023-04-07T17:40:13.136Z,57.10
2023-04-07T17:42:40.376Z,57.20
2023-04-07T17:45:08.297Z,57.50
2023-04-07T17:47:35.745Z,57.30
2023-04-07T17:50:03.177Z,57.40
2023-04-07T17:52:30.516Z,57.90
2023-04-07T17:54:58.096Z,58.40
2023-04-07T17:57:25.448Z,58.80
2023-04-07T17:59:52.571Z,58.60
2023-04-07T18:02:19.921Z,58.90
2023-04-07T18:04:47.471Z,58.80
2023-04-07T18:07:14.928Z,58.90
2023-04-07T18:09:43.069Z,59.20
2023-04-07T18:12:10.409Z,59.70
2023-04-07T18:14:37.714Z,60.30
2023-04-07T18:17:04.811Z,60.60
2023-04-07T18:19:33.825Z,60.50
2023-04-07T18:22:01.032Z,60.50
2023-04-07T18:24:28.192Z,61.10
2023-04-07T18:26:57.768Z,62.00
2023-04-07T18:29:24.811Z,62.70
2023-04-07T18:31:51.977Z,63.00
2023-04-07T18:34:19.158Z,63.20
2023-04-07T18:36:47.502Z,64.20
2023-04-07T18:39:14.831Z,64.30
2023-04-07T18:41:44.610Z,64.80
2023-04-07T18:44:12.144Z,65.00
2023-04-07T18:46:39.323Z,65.70
2023-04-07T18:49:06.416Z,66.20
2023-04-07T18:51:33.525Z,66.30
2023-04-07T18:54:00.794Z,66.80
2023-04-07T18:56:28.475Z,67.00
2023-04-07T18:58:55.742Z,66.90
2023-04-07T19:01:23.079Z,67.20
2023-04-07T19:03:50.677Z,67.40
2023-04-07T19:06:17.895Z,68.10
2023-04-07T19:08:45.062Z,68.40
2023-04-07T19:11:12.119Z,68.70
2023-04-07T19:13:39.194Z,69.00
2023-04-07T19:16:07.700Z,69.20
2023-04-07T19:18:34.872Z,70.40
2023-04-07T19:21:02.260Z,71.20
2023-04-07T19:23:30.485Z,71.50
2023-04-07T19:25:57.650Z,71.70
2023-04-07T19:28:24.842Z,71.80
2023-04-07T19:30:52.083Z,72.10
2023-04-07T19:33:19.212Z,72.20
2023-04-07T19:35:46.431Z,71.80
2023-04-07T19:38:13.572Z,71.20
2023-04-07T19:40:40.838Z,71.30
2023-04-07T19:43:08.307Z,72.00
2023-04-07T19:45:35.524Z,72.60
2023-04-07T19:48:03.202Z,72.90
2023-04-07T19:50:30.591Z,72.60
2023-04-07T19:52:57.655Z,72.90
2023-04-07T19:55:24.838Z,73.70
2023-04-07T19:57:51.999Z,75.10
2023-04-07T20:00:19.347Z,76.30
2023-04-07T20:02:49.698Z,76.80
2023-04-07T20:05:17.683Z,77.20
2023-04-07T20:07:45.840Z,77.80
2023-04-07T20:10:12.942Z,78.50
2023-04-07T20:12:40.045Z,78.30
2023-04-07T20:15:07.916Z,78.40
2023-04-07T20:17:36.878Z,78.30
2023-04-07T20:20:04.979Z,78.20
2023-04-07T20:22:33.018Z,78.40
2023-04-07T20:25:04.556Z,79.00
2023-04-07T20:27:32.099Z,79.30
2023-04-07T20:29:59.325Z,79.50
2023-04-07T20:32:26.571Z,79.40
2023-04-07T20:34:53.987Z,79.70
2023-04-07T20:37:21.791Z,80.10
2023-04-07T20:39:49.105Z,80.30
2023-04-07T20:42:16.432Z,80.80
2023-04-07T20:44:43.612Z,81.20
2023-04-07T20:47:11.480Z,81.40
2023-04-07T20:49:39.726Z,81.70
2023-04-07T20:52:07.195Z,82.60
2023-04-07T20:54:35.475Z,83.20
2023-04-07T20:57:02.552Z,83.90
2023-04-07T20:59:30.348Z,84.40
2023-04-07T21:01:57.527Z,84.50
2023-04-07T21:04:24.860Z,84.60
2023-04-07T21:06:52.247Z,84.90
2023-04-07T21:09:19.382Z,85.10
2023-04-07T21:11:46.462Z,85.10
2023-04-07T21:14:13.532Z,85.20
2023-04-07T21:16:40.761Z,85.40
2023-04-07T21:19:08.000Z,85.00
2023-04-07T21:21:35.207Z,84.90
2023-04-07T21:24:02.243Z,84.60
2023-04-07T21:26:29.320Z,84.40
2023-04-07T21:28:56.531Z,84.60
2023-04-07T21:31:24.242Z,84.80
2023-04-07T21:33:52.758Z,85.10
2023-04-07T21:36:19.986Z,85.10
2023-04-07T21:38:47.778Z,85.30
2023-04-07T21:41:16.631Z,85.60
2023-04-07T21:43:43.815Z,85.80
2023-04-07T21:46:11.054Z,86.20
2023-04-07T21:48:38.228Z,86.40
2023-04-07T21:51:05.628Z,86.70
2023-04-07T21:53:32.752Z,87.10
2023-04-07T21:55:59.829Z,87.40
2023-04-07T21:58:26.983Z,87.90
2023-04-07T22:00:54.446Z,88.60
2023-04-07T22:03:21.995Z,89.50
2023-04-07T22:05:49.329Z,90.10
2023-04-07T22:08:17.075Z,90.50
2023-04-07T22:10:44.351Z,90.80
2023-04-07T22:13:11.516Z,91.00
2023-04-07T22:15:38.685Z,91.30
2023-04-07T22:18:06.774Z,91.40
2023-04-07T22:20:33.980Z,91.60
2023-04-07T22:23:01.204Z,91.70
2023-04-07T22:25:28.480Z,91.90
2023-04-07T22:27:56.870Z,91.90
2023-04-07T22:30:24.608Z,92.00
2023-04-07T22:32:52.121Z,92.10
2023-04-07T22:35:19.382Z,92.30
2023-04-07T22:37:46.574Z,92.60
2023-04-07T22:40:13.691Z,92.70
2023-04-07T22:42:40.992Z,92.70
2023-04-07T22:45:08.460Z,92.80
2023-04-07T22:47:36.084Z,93.00
2023-04-07T22:50:03.353Z,92.80
2023-04-07T22:52:30.429Z,92.70
2023-04-07T22:54:57.878Z,92.60
2023-04-07T22:57:26.194Z,92.60
2023-04-07T22:59:53.445Z,92.40
2023-04-07T23:02:20.803Z,92.20
2023-04-07T23:04:48.783Z,92.00
2023-04-07T23:07:16.101Z,91.60
2023-04-07T23:09:43.218Z,91.50
2023-04-07T23:12:10.509Z,91.60
2023-04-07T23:14:37.607Z,91.60
2023-04-07T23:17:04.711Z,91.50
2023-04-07T23:19:31.851Z,91.60
2023-04-07T23:21:58.999Z,91.80
2023-04-07T23:24:26.060Z,91.70
2023-04-07T23:26:53.186Z,91.90
2023-04-07T23:29:20.245Z,92.00
2023-04-07T23:31:47.936Z,92.10
2023-04-07T23:34:15.065Z,92.20
2023-04-07T23:36:42.571Z,92.20
2023-04-07T23:39:09.676Z,92.30
2023-04-07T23:41:36.964Z,92.50
2023-04-07T23:44:04.143Z,92.60
2023-04-07T23:46:31.279Z,92.70
2023-04-07T23:48:58.409Z,92.80
2023-04-07T23:51:26.508Z,93.00
2023-04-07T23:53:53.722Z,92.90
2023-04-07T23:56:20.852Z,93.20
2023-04-07T23:58:48.315Z,93.50
